sensor_id;sensor_type;location;lat;lon;timestamp;pressure;altitude;pressure_sealevel;temperature;humidity
23619;BME280;18207;32.078;34.818;2022-07-29T00:02:12;100146.97;;;33.43;49.80
23619;BME280;18207;32.078;34.818;2022-07-29T00:04:44;100139.66;;;33.42;50.09
23619;BME280;18207;32.078;34.818;2022-07-29T00:07:15;100149.44;;;33.41;49.74
23619;BME280;18207;32.078;34.818;2022-07-29T00:09:46;100146.59;;;33.41;49.99
23619;BME280;18207;32.078;34.818;2022-07-29T00:12:20;100144.19;;;33.39;49.68
23619;BME280;18207;32.078;34.818;2022-07-29T00:14:55;100147.81;;;33.40;49.59
23619;BME280;18207;32.078;34.818;2022-07-29T00:17:26;100149.88;;;33.39;49.43
23619;BME280;18207;32.078;34.818;2022-07-29T00:19:59;100139.72;;;33.38;49.85
23619;BME280;18207;32.078;34.818;2022-07-29T00:22:30;100150.34;;;33.38;49.92
23619;BME280;18207;32.078;34.818;2022-07-29T00:25:02;100148.72;;;33.37;49.42
23619;BME280;18207;32.078;34.818;2022-07-29T00:27:33;100145.06;;;33.36;50.06
23619;BME280;18207;32.078;34.818;2022-07-29T00:30:05;100143.03;;;33.37;49.70
23619;BME280;18207;32.078;34.818;2022-07-29T00:32:37;100152.81;;;33.36;50.12
23619;BME280;18207;32.078;34.818;2022-07-29T00:35:11;100141.81;;;33.34;49.62
23619;BME280;18207;32.078;34.818;2022-07-29T00:38:00;100147.19;;;33.32;49.86
23619;BME280;18207;32.078;34.818;2022-07-29T00:40:31;100144.34;;;33.32;49.60
23619;BME280;18207;32.078;34.818;2022-07-29T00:43:02;100142.72;;;33.31;50.23
23619;BME280;18207;32.078;34.818;2022-07-29T00:45:33;100156.16;;;33.31;50.00
23619;BME280;18207;32.078;34.818;2022-07-29T00:48:06;100146.00;;;33.30;49.50
23619;BME280;18207;32.078;34.818;2022-07-29T00:50:39;100144.38;;;33.29;50.02
23619;BME280;18207;32.078;34.818;2022-07-29T00:53:12;100147.22;;;33.29;50.41
23619;BME280;18207;32.078;34.818;2022-07-29T00:55:44;100140.38;;;33.26;50.25
23619;BME280;18207;32.078;34.818;2022-07-29T00:58:14;100135.91;;;33.25;50.20
23619;BME280;18207;32.078;34.818;2022-07-29T01:00:46;100142.41;;;33.26;49.70
23619;BME280;18207;32.078;34.818;2022-07-29T01:03:17;100151.38;;;33.24;50.42
23619;BME280;18207;32.078;34.818;2022-07-29T01:05:51;100146.59;;;33.21;50.35
23619;BME280;18207;32.078;34.818;2022-07-29T01:08:24;100148.22;;;33.19;50.31
23619;BME280;18207;32.078;34.818;2022-07-29T01:10:56;100145.84;;;33.17;49.92
23619;BME280;18207;32.078;34.818;2022-07-29T01:13:28;100145.91;;;33.14;50.13
23619;BME280;18207;32.078;34.818;2022-07-29T01:16:10;100137.44;;;33.11;50.21
23619;BME280;18207;32.078;34.818;2022-07-29T01:18:49;100148.88;;;33.07;50.06
23619;BME280;18207;32.078;34.818;2022-07-29T01:21:50;100146.00;;;33.07;50.69
23619;BME280;18207;32.078;34.818;2022-07-29T01:24:42;100136.28;;;33.05;50.67
23619;BME280;18207;32.078;34.818;2022-07-29T01:27:40;100142.78;;;33.05;50.66
23619;BME280;18207;32.078;34.818;2022-07-29T01:30:14;100137.88;;;33.06;50.79
23619;BME280;18207;32.078;34.818;2022-07-29T01:32:50;100137.88;;;33.06;50.21
23619;BME280;18207;32.078;34.818;2022-07-29T01:35:27;100143.59;;;33.06;50.16
23619;BME280;18207;32.078;34.818;2022-07-29T01:38:09;100143.59;;;33.06;50.27
23619;BME280;18207;32.078;34.818;2022-07-29T01:40:49;100140.38;;;33.04;50.56
23619;BME280;18207;32.078;34.818;2022-07-29T01:43:32;100145.72;;;33.02;50.67
23619;BME280;18207;32.078;34.818;2022-07-29T01:46:14;100144.88;;;33.01;50.33
23619;BME280;18207;32.078;34.818;2022-07-29T01:48:52;100150.59;;;33.01;50.42
23619;BME280;18207;32.078;34.818;2022-07-29T01:51:31;100150.59;;;33.01;50.52
23619;BME280;18207;32.078;34.818;2022-07-29T01:54:10;100148.56;;;33.02;50.25
23619;BME280;18207;32.078;34.818;2022-07-29T01:56:45;100145.72;;;33.02;50.57
23619;BME280;18207;32.078;34.818;2022-07-29T01:59:19;100150.16;;;33.03;50.66
23619;BME280;18207;32.078;34.818;2022-07-29T02:01:55;100145.25;;;33.03;50.31
23619;BME280;18207;32.078;34.818;2022-07-29T02:04:29;100152.56;;;33.04;51.03
23619;BME280;18207;32.078;34.818;2022-07-29T02:07:05;100154.19;;;33.05;50.86
23619;BME280;18207;32.078;34.818;2022-07-29T02:09:39;100149.72;;;33.04;50.97
23619;BME280;18207;32.078;34.818;2022-07-29T02:12:14;100150.97;;;33.03;50.80
23619;BME280;18207;32.078;34.818;2022-07-29T02:14:51;100161.13;;;33.04;50.38
23619;BME280;18207;32.078;34.818;2022-07-29T02:17:32;100152.56;;;33.04;50.28
23619;BME280;18207;32.078;34.818;2022-07-29T02:20:09;100143.66;;;33.02;50.85
23619;BME280;18207;32.078;34.818;2022-07-29T02:22:41;100150.16;;;33.03;50.81
23619;BME280;18207;32.078;34.818;2022-07-29T02:25:16;100150.16;;;33.03;50.25
23619;BME280;18207;32.078;34.818;2022-07-29T02:27:49;100154.25;;;33.02;50.91
23619;BME280;18207;32.078;34.818;2022-07-29T02:30:23;100152.63;;;33.01;50.99
23619;BME280;18207;32.078;34.818;2022-07-29T02:32:57;100144.09;;;33.01;50.15
23619;BME280;18207;32.078;34.818;2022-07-29T02:35:30;100142.50;;;33.00;50.71
23619;BME280;18207;32.078;34.818;2022-07-29T02:38:03;100154.66;;;33.00;50.78
23619;BME280;18207;32.078;34.818;2022-07-29T02:40:52;100157.97;;;32.99;50.96
23619;BME280;18207;32.078;34.818;2022-07-29T02:43:26;100152.25;;;32.99;51.00
23619;BME280;18207;32.078;34.818;2022-07-29T02:46:00;100151.88;;;32.97;50.93
23619;BME280;18207;32.078;34.818;2022-07-29T02:49:03;100147.88;;;32.94;50.31
23619;BME280;18207;32.078;34.818;2022-07-29T02:51:43;100149.94;;;32.94;51.09
23619;BME280;18207;32.078;34.818;2022-07-29T02:54:28;100151.16;;;32.93;50.35
23619;BME280;18207;32.078;34.818;2022-07-29T02:57:10;100149.56;;;32.92;50.72
23619;BME280;18207;32.078;34.818;2022-07-29T02:59:49;100166.63;;;32.92;50.52
23619;BME280;18207;32.078;34.818;2022-07-29T03:02:21;100160.94;;;32.92;50.80
23619;BME280;18207;32.078;34.818;2022-07-29T03:04:57;100164.22;;;32.90;50.33
23619;BME280;18207;32.078;34.818;2022-07-29T03:07:31;100173.19;;;32.89;51.08
23619;BME280;18207;32.078;34.818;2022-07-29T03:10:07;100170.34;;;32.89;51.01
23619;BME280;18207;32.078;34.818;2022-07-29T03:12:41;100169.56;;;32.88;50.72
23619;BME280;18207;32.078;34.818;2022-07-29T03:15:14;100177.28;;;32.88;50.74
23619;BME280;18207;32.078;34.818;2022-07-29T03:17:45;100173.63;;;32.87;50.65
23619;BME280;18207;32.078;34.818;2022-07-29T03:20:19;100182.97;;;32.88;50.74
23619;BME280;18207;32.078;34.818;2022-07-29T03:22:51;100175.66;;;32.87;50.64
23619;BME280;18207;32.078;34.818;2022-07-29T03:25:21;100172.03;;;32.86;51.07
23619;BME280;18207;32.078;34.818;2022-07-29T03:27:53;100177.72;;;32.86;50.53
23619;BME280;18207;32.078;34.818;2022-07-29T03:30:24;100175.66;;;32.87;50.50
23619;BME280;18207;32.078;34.818;2022-07-29T03:32:55;100172.81;;;32.87;51.08
23619;BME280;18207;32.078;34.818;2022-07-29T03:35:29;100180.13;;;32.88;50.84
23619;BME280;18207;32.078;34.818;2022-07-29T03:38:01;100187.88;;;32.87;50.45
23619;BME280;18207;32.078;34.818;2022-07-29T03:40:40;100188.66;;;32.88;51.18
23619;BME280;18207;32.078;34.818;2022-07-29T03:43:15;100194.34;;;32.88;51.01
23619;BME280;18207;32.078;34.818;2022-07-29T03:45:52;100194.34;;;32.88;50.35
23619;BME280;18207;32.078;34.818;2022-07-29T03:48:25;100196.78;;;32.89;50.58
23619;BME280;18207;32.078;34.818;2022-07-29T03:51:00;100200.44;;;32.90;50.79
23619;BME280;18207;32.078;34.818;2022-07-29T03:53:55;100195.53;;;32.90;50.59
23619;BME280;18207;32.078;34.818;2022-07-29T03:56:52;100201.66;;;32.89;51.03
23619;BME280;18207;32.078;34.818;2022-07-29T03:59:26;100197.22;;;32.88;50.99
23619;BME280;18207;32.078;34.818;2022-07-29T04:01:58;100199.66;;;32.89;50.39
23619;BME280;18207;32.078;34.818;2022-07-29T04:04:32;100203.28;;;32.90;50.89
23619;BME280;18207;32.078;34.818;2022-07-29T04:07:05;100210.59;;;32.91;50.43
23619;BME280;18207;32.078;34.818;2022-07-29T04:09:36;100206.91;;;32.90;50.29
23619;BME280;18207;32.078;34.818;2022-07-29T04:12:07;100214.22;;;32.91;50.29
23619;BME280;18207;32.078;34.818;2022-07-29T04:14:39;100212.19;;;32.92;50.99
23619;BME280;18207;32.078;34.818;2022-07-29T04:17:11;100216.66;;;32.93;50.99
23619;BME280;18207;32.078;34.818;2022-07-29T04:19:42;100217.47;;;32.93;50.83
23619;BME280;18207;32.078;34.818;2022-07-29T04:22:16;100221.91;;;32.94;50.92
23619;BME280;18207;32.078;34.818;2022-07-29T04:24:47;100223.97;;;32.94;50.81
23619;BME280;18207;32.078;34.818;2022-07-29T04:27:17;100220.69;;;32.95;50.45
23619;BME280;18207;32.078;34.818;2022-07-29T04:29:48;100223.09;;;32.97;50.38
23619;BME280;18207;32.078;34.818;2022-07-29T04:32:23;100230.41;;;32.98;50.96
23619;BME280;18207;32.078;34.818;2022-07-29T04:34:54;100235.25;;;33.01;50.53
23619;BME280;18207;32.078;34.818;2022-07-29T04:37:26;100242.47;;;33.05;50.50
23619;BME280;18207;32.078;34.818;2022-07-29T04:39:56;100237.94;;;33.08;50.29
23619;BME280;18207;32.078;34.818;2022-07-29T04:42:27;100241.59;;;33.12;50.29
23619;BME280;18207;32.078;34.818;2022-07-29T04:44:58;100239.91;;;33.14;50.91
23619;BME280;18207;32.078;34.818;2022-07-29T04:47:34;100242.31;;;33.15;50.27
23619;BME280;18207;32.078;34.818;2022-07-29T04:50:08;100245.53;;;33.17;50.69
23619;BME280;18207;32.078;34.818;2022-07-29T04:52:40;100242.25;;;33.19;50.79
23619;BME280;18207;32.078;34.818;2022-07-29T04:55:11;100242.63;;;33.21;50.96
23619;BME280;18207;32.078;34.818;2022-07-29T04:57:42;100251.09;;;33.24;50.35
23619;BME280;18207;32.078;34.818;2022-07-29T05:00:13;100240.91;;;33.27;50.58
23619;BME280;18207;32.078;34.818;2022-07-29T05:02:44;100249.81;;;33.29;50.96
23619;BME280;18207;32.078;34.818;2022-07-29T05:05:15;100239.97;;;33.33;50.47
23619;BME280;18207;32.078;34.818;2022-07-29T05:07:48;100246.84;;;33.36;50.59
23619;BME280;18207;32.078;34.818;2022-07-29T05:10:19;100243.09;;;33.39;50.98
23619;BME280;18207;32.078;34.818;2022-07-29T05:12:51;100242.25;;;33.42;50.98
23619;BME280;18207;32.078;34.818;2022-07-29T05:15:21;100238.53;;;33.45;50.51
23619;BME280;18207;32.078;34.818;2022-07-29T05:17:53;100244.94;;;33.49;50.30
23619;BME280;18207;32.078;34.818;2022-07-29T05:20:25;100246.50;;;33.53;51.08
23619;BME280;18207;32.078;34.818;2022-07-29T05:23:00;100236.28;;;33.56;51.10
23619;BME280;18207;32.078;34.818;2022-07-29T05:25:32;100233.81;;;33.58;50.37
23619;BME280;18207;32.078;34.818;2022-07-29T05:28:12;100236.63;;;33.61;51.00
23619;BME280;18207;32.078;34.818;2022-07-29T05:30:43;100229.22;;;33.64;50.33
23619;BME280;18207;32.078;34.818;2022-07-29T05:33:15;100230.41;;;33.66;50.82
23619;BME280;18207;32.078;34.818;2022-07-29T05:36:04;100224.28;;;33.68;50.56
23619;BME280;18207;32.078;34.818;2022-07-29T05:38:38;100231.16;;;33.70;50.69
23619;BME280;18207;32.078;34.818;2022-07-29T05:41:08;100236.78;;;33.74;51.09
23619;BME280;18207;32.078;34.818;2022-07-29T05:43:39;100235.91;;;33.77;50.59
23619;BME280;18207;32.078;34.818;2022-07-29T05:46:10;100241.09;;;33.82;50.69
23619;BME280;18207;32.078;34.818;2022-07-29T05:48:42;100242.16;;;33.88;50.40
23619;BME280;18207;32.078;34.818;2022-07-29T05:51:13;100244.53;;;33.93;51.06
23619;BME280;18207;32.078;34.818;2022-07-29T05:53:46;100248.91;;;33.97;50.99
23619;BME280;18207;32.078;34.818;2022-07-29T05:56:16;100240.28;;;34.01;50.48
23619;BME280;18207;32.078;34.818;2022-07-29T05:58:48;100238.53;;;34.06;50.38
23619;BME280;18207;32.078;34.818;2022-07-29T06:01:19;100244.91;;;34.14;50.90
23619;BME280;18207;32.078;34.818;2022-07-29T06:03:50;100242.34;;;34.19;50.53
23619;BME280;18207;32.078;34.818;2022-07-29T06:06:22;100246.72;;;34.24;50.75
23619;BME280;18207;32.078;34.818;2022-07-29T06:08:55;100245.84;;;34.27;50.20
23619;BME280;18207;32.078;34.818;2022-07-29T06:11:39;100247.00;;;34.29;50.15
23619;BME280;18207;32.078;34.818;2022-07-29T06:14:10;100251.84;;;34.32;50.17
23619;BME280;18207;32.078;34.818;2022-07-29T06:16:41;100250.16;;;34.35;50.19
23619;BME280;18207;32.078;34.818;2022-07-29T06:19:13;100250.06;;;34.38;50.34
23619;BME280;18207;32.078;34.818;2022-07-29T06:21:45;100255.28;;;34.43;50.38
23619;BME280;18207;32.078;34.818;2022-07-29T06:24:18;100252.69;;;34.49;50.67
23619;BME280;18207;32.078;34.818;2022-07-29T06:26:50;100246.44;;;34.54;50.58
23619;BME280;18207;32.078;34.818;2022-07-29T06:29:21;100256.56;;;34.58;49.98
23619;BME280;18207;32.078;34.818;2022-07-29T06:31:52;100256.84;;;34.64;50.50
23619;BME280;18207;32.078;34.818;2022-07-29T06:34:23;100252.66;;;34.68;50.53
23619;BME280;18207;32.078;34.818;2022-07-29T06:36:53;100258.28;;;34.72;50.26
23619;BME280;18207;32.078;34.818;2022-07-29T06:39:28;100264.72;;;34.76;50.02
23619;BME280;18207;32.078;34.818;2022-07-29T06:41:57;100268.31;;;34.80;50.34
23619;BME280;18207;32.078;34.818;2022-07-29T06:44:29;100270.63;;;34.85;50.14
23619;BME280;18207;32.078;34.818;2022-07-29T06:47:02;100269.28;;;34.89;49.69
23619;BME280;18207;32.078;34.818;2022-07-29T06:49:33;100264.31;;;34.93;49.81
23619;BME280;18207;32.078;34.818;2022-07-29T06:52:05;100250.72;;;34.97;50.12
23619;BME280;18207;32.078;34.818;2022-07-29T06:54:38;100259.56;;;35.02;49.81
23619;BME280;18207;32.078;34.818;2022-07-29T06:57:16;100251.28;;;35.08;49.69
23619;BME280;18207;32.078;34.818;2022-07-29T06:59:48;100263.81;;;35.14;49.54
23619;BME280;18207;32.078;34.818;2022-07-29T07:02:19;100258.38;;;35.19;49.55
23619;BME280;18207;32.078;34.818;2022-07-29T07:04:49;100265.13;;;35.25;49.51
23619;BME280;18207;32.078;34.818;2022-07-29T07:07:20;100264.16;;;35.32;49.52
23619;BME280;18207;32.078;34.818;2022-07-29T07:09:53;100270.94;;;35.38;50.07
23619;BME280;18207;32.078;34.818;2022-07-29T07:12:24;100269.59;;;35.42;49.77
23619;BME280;18207;32.078;34.818;2022-07-29T07:14:54;100263.34;;;35.47;49.63
23619;BME280;18207;32.078;34.818;2022-07-29T07:17:26;100265.28;;;35.50;50.05
23619;BME280;18207;32.078;34.818;2022-07-29T07:19:56;100273.34;;;35.55;49.69
23619;BME280;18207;32.078;34.818;2022-07-29T07:22:27;100260.56;;;35.60;49.75
23619;BME280;18207;32.078;34.818;2022-07-29T07:25:10;100265.72;;;35.65;49.52
23619;BME280;18207;32.078;34.818;2022-07-29T07:27:41;100265.66;;;35.68;49.43
23619;BME280;18207;32.078;34.818;2022-07-29T07:30:12;100274.47;;;35.74;49.99
23619;BME280;18207;32.078;34.818;2022-07-29T07:32:43;100272.69;;;35.80;49.79
23619;BME280;18207;32.078;34.818;2022-07-29T07:35:16;100281.50;;;35.85;49.31
23619;BME280;18207;32.078;34.818;2022-07-29T07:37:47;100277.66;;;35.91;49.66
23619;BME280;18207;32.078;34.818;2022-07-29T07:40:21;100274.22;;;35.96;49.43
23619;BME280;18207;32.078;34.818;2022-07-29T07:42:52;100277.84;;;36.00;49.57
23619;BME280;18207;32.078;34.818;2022-07-29T07:45:24;100278.88;;;36.06;49.47
23619;BME280;18207;32.078;34.818;2022-07-29T07:47:55;100273.03;;;36.10;49.38
23619;BME280;18207;32.078;34.818;2022-07-29T07:50:27;100268.50;;;36.12;49.01
23619;BME280;18207;32.078;34.818;2022-07-29T07:52:58;100274.91;;;36.16;48.98
23619;BME280;18207;32.078;34.818;2022-07-29T07:55:32;100272.75;;;36.20;49.18
23619;BME280;18207;32.078;34.818;2022-07-29T07:58:23;100272.28;;;36.22;49.47
23619;BME280;18207;32.078;34.818;2022-07-29T08:00:54;100279.16;;;36.24;49.47
23619;BME280;18207;32.078;34.818;2022-07-29T08:03:25;100281.13;;;36.27;48.99
23619;BME280;18207;32.078;34.818;2022-07-29T08:05:57;100278.97;;;36.31;48.65
23619;BME280;18207;32.078;34.818;2022-07-29T08:08:28;100279.63;;;36.35;48.74
23619;BME280;18207;32.078;34.818;2022-07-29T08:11:00;100272.53;;;36.40;48.64
23619;BME280;18207;32.078;34.818;2022-07-29T08:13:37;100269.25;;;36.41;48.91
23619;BME280;18207;32.078;34.818;2022-07-29T08:16:08;100274.88;;;36.45;48.57
23619;BME280;18207;32.078;34.818;2022-07-29T08:18:44;100271.56;;;36.46;48.52
23619;BME280;18207;32.078;34.818;2022-07-29T08:21:16;100273.16;;;36.47;48.81
23619;BME280;18207;32.078;34.818;2022-07-29T08:23:48;100269.06;;;36.48;48.55
23619;BME280;18207;32.078;34.818;2022-07-29T08:26:30;100268.16;;;36.51;48.99
23619;BME280;18207;32.078;34.818;2022-07-29T08:29:03;100255.88;;;36.51;48.63
23619;BME280;18207;32.078;34.818;2022-07-29T08:31:34;100254.63;;;36.52;48.45
23619;BME280;18207;32.078;34.818;2022-07-29T08:34:05;100254.97;;;36.54;48.68
23619;BME280;18207;32.078;34.818;2022-07-29T08:36:36;100255.31;;;36.56;48.44
23619;BME280;18207;32.078;34.818;2022-07-29T08:39:07;100255.63;;;36.58;48.13
23619;BME280;18207;32.078;34.818;2022-07-29T08:41:41;100249.47;;;36.59;48.14
23619;BME280;18207;32.078;34.818;2022-07-29T08:44:28;100259.69;;;36.60;47.92
23619;BME280;18207;32.078;34.818;2022-07-29T08:47:01;100242.00;;;36.62;48.30
23619;BME280;18207;32.078;34.818;2022-07-29T08:49:34;100252.22;;;36.63;48.24
23619;BME280;18207;32.078;34.818;2022-07-29T08:52:06;100252.69;;;36.61;48.05
23619;BME280;18207;32.078;34.818;2022-07-29T08:54:44;100253.00;;;36.63;48.44
23619;BME280;18207;32.078;34.818;2022-07-29T08:57:21;100253.81;;;36.64;48.13
23619;BME280;18207;32.078;34.818;2022-07-29T08:59:55;100253.34;;;36.65;48.03
23619;BME280;18207;32.078;34.818;2022-07-29T09:02:41;100252.88;;;36.67;48.20
23619;BME280;18207;32.078;34.818;2022-07-29T09:05:16;100258.97;;;36.69;47.86
23619;BME280;18207;32.078;34.818;2022-07-29T09:07:47;100252.81;;;36.70;48.25
23619;BME280;18207;32.078;34.818;2022-07-29T09:10:19;100258.06;;;36.72;48.27
23619;BME280;18207;32.078;34.818;2022-07-29T09:12:53;100253.94;;;36.73;48.26
23619;BME280;18207;32.078;34.818;2022-07-29T09:15:25;100252.69;;;36.74;48.01
23619;BME280;18207;32.078;34.818;2022-07-29T09:17:57;100254.28;;;36.75;48.11
23619;BME280;18207;32.078;34.818;2022-07-29T09:20:29;100254.63;;;36.76;47.89
23619;BME280;18207;32.078;34.818;2022-07-29T09:23:20;100246.84;;;36.77;47.78
23619;BME280;18207;32.078;34.818;2022-07-29T09:25:52;100252.91;;;36.79;47.62
23619;BME280;18207;32.078;34.818;2022-07-29T09:28:25;100246.25;;;36.82;47.61
23619;BME280;18207;32.078;34.818;2022-07-29T09:30:58;100247.06;;;36.82;47.58
23619;BME280;18207;32.078;34.818;2022-07-29T09:33:34;100243.72;;;36.84;47.60
23619;BME280;18207;32.078;34.818;2022-07-29T09:36:09;100253.59;;;36.83;47.57
23619;BME280;18207;32.078;34.818;2022-07-29T09:38:40;100249.94;;;36.82;47.51
23619;BME280;18207;32.078;34.818;2022-07-29T09:41:12;100256.81;;;36.85;47.52
23619;BME280;18207;32.078;34.818;2022-07-29T09:43:55;100255.53;;;36.86;46.90
23619;BME280;18207;32.078;34.818;2022-07-29T09:46:26;100249.03;;;36.85;47.21
23619;BME280;18207;32.078;34.818;2022-07-29T09:49:12;100249.34;;;36.87;47.21
23619;BME280;18207;32.078;34.818;2022-07-29T09:51:43;100250.97;;;36.88;47.26
23619;BME280;18207;32.078;34.818;2022-07-29T09:54:24;100253.41;;;36.90;47.60
23619;BME280;18207;32.078;34.818;2022-07-29T09:56:56;100257.88;;;36.91;47.22
23619;BME280;18207;32.078;34.818;2022-07-29T09:59:29;100252.03;;;36.94;47.20
23619;BME280;18207;32.078;34.818;2022-07-29T10:02:01;100249.94;;;36.95;47.09
23619;BME280;18207;32.078;34.818;2022-07-29T10:04:39;100247.09;;;36.95;46.83
23619;BME280;18207;32.078;34.818;2022-07-29T10:07:11;100248.00;;;36.92;47.41
23619;BME280;18207;32.078;34.818;2022-07-29T10:09:54;100252.16;;;36.91;47.00
23619;BME280;18207;32.078;34.818;2022-07-29T10:12:25;100248.47;;;36.90;47.04
23619;BME280;18207;32.078;34.818;2022-07-29T10:15:01;100238.59;;;36.91;47.22
23619;BME280;18207;32.078;34.818;2022-07-29T10:17:33;100244.34;;;36.91;47.12
23619;BME280;18207;32.078;34.818;2022-07-29T10:20:10;100242.25;;;36.92;46.92
23619;BME280;18207;32.078;34.818;2022-07-29T10:22:43;100232.88;;;36.91;47.29
23619;BME280;18207;32.078;34.818;2022-07-29T10:25:21;100226.34;;;36.91;47.01
23619;BME280;18207;32.078;34.818;2022-07-29T10:27:53;100228.88;;;36.89;46.75
23619;BME280;18207;32.078;34.818;2022-07-29T10:30:27;100227.22;;;36.88;46.58
23619;BME280;18207;32.078;34.818;2022-07-29T10:33:18;100230.09;;;36.88;47.11
23619;BME280;18207;32.078;34.818;2022-07-29T10:36:23;100229.66;;;36.89;47.08
23619;BME280;18207;32.078;34.818;2022-07-29T10:39:07;100232.88;;;36.91;47.07
23619;BME280;18207;32.078;34.818;2022-07-29T10:42:02;100230.34;;;36.93;46.59
23619;BME280;18207;32.078;34.818;2022-07-29T10:44:39;100222.66;;;36.90;46.57
23619;BME280;18207;32.078;34.818;2022-07-29T10:47:24;100228.06;;;36.88;46.61
23619;BME280;18207;32.078;34.818;2022-07-29T10:49:59;100224.03;;;36.86;46.91
23619;BME280;18207;32.078;34.818;2022-07-29T10:52:54;100218.41;;;36.82;47.04
23619;BME280;18207;32.078;34.818;2022-07-29T10:55:37;100228.72;;;36.80;46.43
23619;BME280;18207;32.078;34.818;2022-07-29T10:58:19;100218.06;;;36.80;46.33
23619;BME280;18207;32.078;34.818;2022-07-29T11:00:57;100218.41;;;36.82;46.33
23619;BME280;18207;32.078;34.818;2022-07-29T11:04:08;100221.63;;;36.84;46.62
23619;BME280;18207;32.078;34.818;2022-07-29T11:07:09;100217.50;;;36.85;46.75
23619;BME280;18207;32.078;34.818;2022-07-29T11:09:42;100225.75;;;36.83;46.39
23619;BME280;18207;32.078;34.818;2022-07-29T11:12:47;100220.47;;;36.82;46.55
23619;BME280;18207;32.078;34.818;2022-07-29T11:15:20;100223.00;;;36.80;46.41
23619;BME280;18207;32.078;34.818;2022-07-29T11:18:09;100212.31;;;36.80;46.23
23619;BME280;18207;32.078;34.818;2022-07-29T11:20:47;100208.78;;;36.76;46.68
23619;BME280;18207;32.078;34.818;2022-07-29T11:23:24;100213.72;;;36.76;46.76
23619;BME280;18207;32.078;34.818;2022-07-29T11:26:18;100203.50;;;36.75;46.17
23619;BME280;18207;32.078;34.818;2022-07-29T11:29:02;100207.97;;;36.76;46.67
23619;BME280;18207;32.078;34.818;2022-07-29T11:31:41;100210.06;;;36.76;46.58
23619;BME280;18207;32.078;34.818;2022-07-29T11:34:24;100205.13;;;36.76;45.74
23619;BME280;18207;32.078;34.818;2022-07-29T11:37:22;100203.97;;;36.74;45.91
23619;BME280;18207;32.078;34.818;2022-07-29T11:40:18;100202.72;;;36.75;46.12
23619;BME280;18207;32.078;34.818;2022-07-29T11:42:51;100201.91;;;36.74;45.95
23619;BME280;18207;32.078;34.818;2022-07-29T11:45:26;100190.78;;;36.76;46.34
23619;BME280;18207;32.078;34.818;2022-07-29T11:48:19;100184.38;;;36.72;46.14
23619;BME280;18207;32.078;34.818;2022-07-29T11:50:59;100181.97;;;36.71;46.26
23619;BME280;18207;32.078;34.818;2022-07-29T11:53:31;100187.69;;;36.71;45.88
23619;BME280;18207;32.078;34.818;2022-07-29T11:56:08;100177.97;;;36.68;45.86
23619;BME280;18207;32.078;34.818;2022-07-29T11:58:44;100171.88;;;36.66;46.37
23619;BME280;18207;32.078;34.818;2022-07-29T12:01:17;100173.50;;;36.67;46.38
23619;BME280;18207;32.078;34.818;2022-07-29T12:04:03;100175.88;;;36.69;46.41
23619;BME280;18207;32.078;34.818;2022-07-29T12:06:35;100163.53;;;36.72;45.73
23619;BME280;18207;32.078;34.818;2022-07-29T12:09:10;100157.78;;;36.72;46.33
23619;BME280;18207;32.078;34.818;2022-07-29T12:11:43;100165.25;;;36.69;45.84
23619;BME280;18207;32.078;34.818;2022-07-29T12:14:28;100171.31;;;36.71;45.85
23619;BME280;18207;32.078;34.818;2022-07-29T12:17:02;100156.66;;;36.69;46.41
23619;BME280;18207;32.078;34.818;2022-07-29T12:19:43;100171.31;;;36.71;46.54
23619;BME280;18207;32.078;34.818;2022-07-29T12:22:25;100177.50;;;36.70;45.83
23619;BME280;18207;32.078;34.818;2022-07-29T12:25:03;100170.16;;;36.69;46.35
23619;BME280;18207;32.078;34.818;2022-07-29T12:28:00;100172.25;;;36.68;45.89
23619;BME280;18207;32.078;34.818;2022-07-29T12:30:38;100175.22;;;36.65;45.58
23619;BME280;18207;32.078;34.818;2022-07-29T12:33:19;100172.81;;;36.63;46.31
23619;BME280;18207;32.078;34.818;2022-07-29T12:35:53;100173.63;;;36.64;45.92
23619;BME280;18207;32.078;34.818;2022-07-29T12:38:37;100167.88;;;36.64;46.11
23619;BME280;18207;32.078;34.818;2022-07-29T12:41:12;100171.19;;;36.62;46.17
23619;BME280;18207;32.078;34.818;2022-07-29T12:43:53;100171.19;;;36.62;46.20
23619;BME280;18207;32.078;34.818;2022-07-29T12:46:25;100173.25;;;36.62;45.98
23619;BME280;18207;32.078;34.818;2022-07-29T12:48:56;100175.78;;;36.60;46.30
23619;BME280;18207;32.078;34.818;2022-07-29T12:51:33;100177.03;;;36.59;45.81
23619;BME280;18207;32.078;34.818;2022-07-29T12:54:08;100167.66;;;36.58;45.74
23619;BME280;18207;32.078;34.818;2022-07-29T12:56:44;100173.38;;;36.58;45.89
23619;BME280;18207;32.078;34.818;2022-07-29T12:59:17;100164.44;;;36.56;45.87
23619;BME280;18207;32.078;34.818;2022-07-29T13:01:51;100167.31;;;36.56;45.61
23619;BME280;18207;32.078;34.818;2022-07-29T13:04:28;100169.03;;;36.54;45.91
23619;BME280;18207;32.078;34.818;2022-07-29T13:07:00;100167.06;;;36.76;45.49
23619;BME280;18207;32.078;34.818;2022-07-29T13:09:40;100166.63;;;36.65;45.74
23619;BME280;18207;32.078;34.818;2022-07-29T13:12:14;100158.47;;;36.88;45.36
23619;BME280;18207;32.078;34.818;2022-07-29T13:14:47;100178.19;;;36.74;45.86
23619;BME280;18207;32.078;34.818;2022-07-29T13:17:21;100164.56;;;36.65;45.66
23619;BME280;18207;32.078;34.818;2022-07-29T13:20:04;100160.50;;;36.87;45.08
23619;BME280;18207;32.078;34.818;2022-07-29T13:22:37;100164.00;;;36.70;45.10
23619;BME280;18207;32.078;34.818;2022-07-29T13:25:09;100161.81;;;36.62;45.93